Irmo, South Carolina
Current Conditions -  °F | °C
As of 12:56 AM on Sunday 26 Oct 2014 (Local Time) from KCAE Reporting Station
Clear Clear  
Wind Chill: 11°   Ceiling: Unl
Heat Index: 11°   Visibility: 10mi
Dew Point:   Wind: 3mph
Humidity: 77%   Direction: 240°WSW
Pressure: 29.93"   Gusts: NA
Location:  34.09°N, 81.18°W
Report Text: KCAE 260456Z 24003KT 10SM CLR 11/07 A2993 RMK AO2 SLP134 T01110072 402390044
Loading
Personal Weather Stations






























Interactive Weather Map
Tropical Storm Tracking
New forecast layout! Learn more

10-Day Weather Forecast

Advertisements
Track Severe Weather on mobile